KSAV

Savannah-Hilton Head International Airport

Airport
ICAO code
KSAV
Summary
ICAO Region
NAM
ICAO Territory
Location

Savannah, Georgia,

Coordinates
32° 7' 44" N , 81° 12' 16" W
KCC
Metar
KSAV 180353Z 07004KT 10SM FEW034 SCT050 SCT250 25/19 A3014 RMK AO2 SLP204 LAST T02500194

Description

Savannah-Hilton Head International Airport is a public and military (ANG) use airport located 13 km northwest of the central business district of Savannah, a city in Chatham County, Georgia. It has been formerly known as Savannah International Airport, Travis Field and Chatham Field.

Climatology

Humid “subtropical” climate (Köppen climate classification Cfa) - characterized by hot, humid summers and cool winters. Significant amounts of precipitation occur in all seasons in most areas.

Runways

Designator Length Width Surface Rops
1/19 2134 46 CONC-G Yes/Yes
10/28 2850 46 CONC-G Yes/Yes

Airport map

Aerial View

SKYbrary Partners:

Safety knowledge contributed by: